Time;durP1;ratioP1;P1;durP2;ratioP2;P2;SDS_P1;SDS_P2;PMS_P1;PMS_P2;Temp;Humidity;BMP_temperature;BMP_pressure;BME280_temperature;BME280_humidity;BME280_pressure;Samples;Min_cycle;Max_cycle;Signal;HPM_P1;HPM_P2
2021/04/23 00:02:09;;;;;;;1999.90;999.90;;;;;;;5.89;100.00;-18067.13;4942127;29;20607;-34
2021/04/23 00:04:56;;;;;;;1999.90;999.90;;;;;;;5.93;100.00;-18068.06;4942439;29;20448;-32
2021/04/23 00:07:44;;;;;;;1999.90;999.90;;;;;;;5.86;100.00;-18066.31;4942521;29;20673;-34
2021/04/23 00:10:30;;;;;;;1999.90;999.90;;;;;;;5.88;100.00;-18067.00;4942340;29;20209;-35
2021/04/23 00:13:16;;;;;;;1999.90;999.90;;;;;;;5.73;100.00;-18062.84;4942177;29;20278;-32
2021/04/23 00:16:06;;;;;;;1999.90;999.90;;;;;;;5.94;100.00;-18068.34;4941850;29;20551;-34
2021/04/23 00:18:53;;;;;;;1999.90;999.90;;;;;;;5.79;100.00;-18064.44;4941997;29;20204;-35
2021/04/23 00:21:41;;;;;;;1999.90;999.90;;;;;;;5.57;100.00;-18058.53;4941945;29;20469;-34
2021/04/23 00:24:27;;;;;;;1999.90;999.90;;;;;;;5.63;100.00;-18060.16;4942123;29;20731;-33
2021/04/23 00:27:13;;;;;;;1999.90;999.90;;;;;;;5.65;100.00;-18060.69;4941714;29;20444;-34
2021/04/23 00:30:02;;;;;;;1999.90;999.90;;;;;;;5.60;100.00;-18059.47;4941365;29;20451;-33
2021/04/23 00:32:53;;;;;;;1999.90;999.90;;;;;;;5.63;100.00;-18060.16;4941489;29;20452;-35
2021/04/23 00:35:42;;;;;;;1999.90;999.90;;;;;;;5.60;100.00;-18059.47;4940801;29;20612;-37
2021/04/23 00:38:29;;;;;;;1999.90;999.90;;;;;;;5.66;100.00;-18061.09;4941564;29;20464;-36
2021/04/23 00:41:17;;;;;;;1999.90;999.90;;;;;;;5.65;100.00;-18060.69;4941816;29;20554;-36
2021/04/23 00:44:04;;;;;;;1999.90;999.90;;;;;;;5.07;100.00;-18045.53;4940999;29;20456;-34
2021/04/23 00:46:53;;;;;;;1999.90;999.90;;;;;;;5.26;100.00;-18050.34;4941341;29;20535;-33
2021/04/23 00:49:41;;;;;;;1999.90;999.90;;;;;;;5.43;100.00;-18054.91;4941392;29;20916;-37
2021/04/23 00:52:35;;;;;;;1999.90;999.90;;;;;;;5.30;100.00;-18051.56;4941037;29;20464;-37
2021/04/23 00:55:21;;;;;;;1999.90;999.90;;;;;;;5.36;100.00;-18053.03;4941075;29;20651;-34
2021/04/23 00:58:11;;;;;;;1999.90;999.90;;;;;;;5.46;100.00;-18055.72;4941607;29;20644;-35
2021/04/23 01:01:00;;;;;;;1999.90;999.90;;;;;;;5.50;100.00;-18056.94;4941390;29;20453;-36
2021/04/23 01:03:46;;;;;;;1999.90;999.90;;;;;;;5.51;100.00;-18057.06;4940963;29;20573;-34
2021/04/23 01:06:34;;;;;;;1999.90;999.90;;;;;;;5.46;100.00;-18055.84;4940458;29;20453;-33
2021/04/23 01:09:22;;;;;;;1999.90;999.90;;;;;;;5.30;100.00;-18051.44;4940893;29;20883;-34
2021/04/23 01:12:10;;;;;;;1999.90;999.90;;;;;;;4.79;100.00;-18038.13;4940996;29;20580;-35
2021/04/23 01:14:59;;;;;;;1999.90;999.90;;;;;;;5.08;100.00;-18045.78;4941073;29;20516;-36
2021/04/23 01:17:45;;;;;;;1999.90;999.90;;;;;;;5.10;100.00;-18046.19;4940556;29;20747;-34
2021/04/23 01:20:32;;;;;;;1999.90;999.90;;;;;;;5.16;100.00;-18047.94;4940709;29;20552;-38
2021/04/23 01:23:18;;;;;;;1999.90;999.90;;;;;;;5.25;100.00;-18050.22;4940541;29;20544;-34
2021/04/23 01:26:06;;;;;;;1999.90;999.90;;;;;;;5.28;100.00;-18051.03;4940652;29;20452;-32
2021/04/23 01:28:54;;;;;;;1999.90;999.90;;;;;;;5.04;100.00;-18044.72;4940588;29;20503;-34
2021/04/23 01:31:42;;;;;;;1999.90;999.90;;;;;;;4.87;100.00;-18040.16;4940580;29;20590;-36
2021/04/23 01:34:32;;;;;;;1999.90;999.90;;;;;;;5.08;100.00;-18045.78;4940759;29;20724;-36
2021/04/23 01:37:19;;;;;;;1999.90;999.90;;;;;;;5.00;100.00;-18043.63;4940196;29;20456;-38
2021/04/23 01:40:10;;;;;;;1999.90;999.90;;;;;;;4.95;100.00;-18042.28;4939983;29;20448;-35
2021/04/23 01:42:56;;;;;;;1999.90;999.90;;;;;;;5.01;100.00;-18043.91;4940056;29;20608;-37
2021/04/23 01:45:42;;;;;;;1999.90;999.90;;;;;;;4.88;100.00;-18040.41;4940005;29;20711;-34
2021/04/23 01:48:32;;;;;;;1999.90;999.90;;;;;;;4.92;100.00;-18041.50;4940414;29;20512;-31
2021/04/23 01:51:18;;;;;;;1999.90;999.90;;;;;;;4.82;100.00;-18038.81;4940252;29;20456;-34
2021/04/23 01:54:05;;;;;;;1999.90;999.90;;;;;;;4.70;100.00;-18035.72;4940085;29;20605;-36
2021/04/23 01:56:55;;;;;;;1999.90;999.90;;;;;;;4.65;100.00;-18034.25;4939979;29;21039;-35
2021/04/23 01:59:43;;;;;;;1999.90;999.90;;;;;;;4.49;100.00;-18030.06;4939810;29;20460;-33
2021/04/23 02:02:29;;;;;;;1999.90;999.90;;;;;;;4.60;100.00;-18032.91;4939820;29;20753;-32
2021/04/23 02:05:15;;;;;;;1999.90;999.90;;;;;;;4.48;100.00;-18029.94;4940198;29;20448;-34
2021/04/23 02:08:01;;;;;;;1999.90;999.90;;;;;;;4.50;100.00;-18030.47;4939956;29;20452;-32
2021/04/23 02:10:50;;;;;;;1999.90;999.90;;;;;;;4.61;100.00;-18033.28;4940215;29;20449;-34
2021/04/23 02:13:38;;;;;;;1999.90;999.90;;;;;;;4.56;100.00;-18031.81;4940116;29;20445;-33
2021/04/23 02:16:24;;;;;;;1999.90;999.90;;;;;;;4.61;100.00;-18033.28;4939678;29;20544;-33
2021/04/23 02:19:16;;;;;;;1999.90;999.90;;;;;;;4.46;100.00;-18029.28;4940092;29;20560;-37
2021/04/23 02:22:02;;;;;;;1999.90;999.90;;;;;;;4.54;100.00;-18031.41;4939747;29;20448;-34
2021/04/23 02:24:47;;;;;;;1999.90;999.90;;;;;;;4.47;100.00;-18029.53;4940108;29;20452;-38
2021/04/23 02:27:34;;;;;;;1999.90;999.90;;;;;;;4.44;100.00;-18028.88;4939522;29;20452;-34
2021/04/23 02:30:27;;;;;;;1999.90;999.90;;;;;;;4.47;100.00;-18029.66;4939629;29;20878;-35
2021/04/23 02:33:18;;;;;;;1999.90;999.90;;;;;;;4.40;100.00;-18027.66;4939656;29;20546;-34
2021/04/23 02:36:05;;;;;;;1999.90;999.90;;;;;;;4.36;100.00;-18026.59;4939598;29;20488;-31
2021/04/23 02:38:54;;;;;;;1999.90;999.90;;;;;;;4.20;100.00;-18022.41;4939624;29;20453;-35
2021/04/23 02:41:41;;;;;;;1999.90;999.90;;;;;;;4.02;100.00;-18017.72;4939921;29;20452;-37
2021/04/23 02:44:27;;;;;;;1999.90;999.90;;;;;;;4.15;100.00;-18021.22;4939555;29;20608;-38
2021/04/23 02:47:15;;;;;;;1999.90;999.90;;;;;;;4.13;100.00;-18020.53;4939872;29;20519;-38
2021/04/23 02:50:01;;;;;;;1999.90;999.90;;;;;;;4.03;100.00;-18017.97;4939596;29;20449;-32
2021/04/23 02:52:46;;;;;;;1999.90;999.90;;;;;;;4.04;100.00;-18018.25;4939325;29;20901;-36
2021/04/23 02:55:33;;;;;;;1999.90;999.90;;;;;;;4.11;100.00;-18020.13;4939395;29;20480;-36
2021/04/23 02:58:20;;;;;;;1999.90;999.90;;;;;;;3.91;100.00;-18014.75;4939664;29;21001;-33
2021/04/23 03:01:09;;;;;;;1999.90;999.90;;;;;;;3.74;100.00;-18010.31;4939729;29;20448;-33
2021/04/23 03:03:56;;;;;;;1999.90;999.90;;;;;;;4.07;100.00;-18018.94;4939478;29;20456;-35
2021/04/23 03:06:42;;;;;;;1999.90;999.90;;;;;;;4.14;100.00;-18020.81;4941937;29;20448;-36
2021/04/23 03:09:28;;;;;;;1999.90;999.90;;;;;;;4.15;100.00;-18021.22;4943146;29;20615;-33
2021/04/23 03:12:14;;;;;;;1999.90;999.90;;;;;;;4.17;100.00;-18021.47;4943023;29;20855;-32
2021/04/23 03:15:00;;;;;;;1999.90;999.90;;;;;;;4.17;100.00;-18021.47;4942930;29;20463;-32
2021/04/23 03:17:46;;;;;;;1999.90;999.90;;;;;;;4.01;100.00;-18017.44;4943054;29;20600;-33
2021/04/23 03:20:34;;;;;;;1999.90;999.90;;;;;;;3.90;100.00;-18014.50;4943250;29;20463;-34
2021/04/23 03:23:25;;;;;;;1999.90;999.90;;;;;;;3.92;100.00;-18015.03;4943082;29;20459;-36
2021/04/23 03:26:12;;;;;;;1999.90;999.90;;;;;;;4.01;100.00;-18017.44;4943084;29;20960;-38
2021/04/23 03:28:58;;;;;;;1999.90;999.90;;;;;;;4.02;100.00;-18017.56;4942902;29;20616;-34
2021/04/23 03:31:48;;;;;;;1999.90;999.90;;;;;;;4.12;100.00;-18020.28;4943057;29;20457;-36
2021/04/23 03:34:37;;;;;;;1999.90;999.90;;;;;;;3.98;100.00;-18016.63;4943249;29;20467;-34
2021/04/23 03:37:23;;;;;;;1999.90;999.90;;;;;;;3.88;100.00;-18013.94;4942786;29;20633;-35
2021/04/23 03:40:12;;;;;;;1999.90;999.90;;;;;;;3.99;100.00;-18016.78;4942900;29;20448;-36
2021/04/23 03:43:01;;;;;;;1999.90;999.90;;;;;;;4.05;100.00;-18018.38;4942881;29;20449;-32
2021/04/23 03:45:51;;;;;;;1999.90;999.90;;;;;;;3.85;100.00;-18013.16;4942177;29;20449;-34
2021/04/23 03:48:38;;;;;;;1999.90;999.90;;;;;;;3.79;100.00;-18011.66;4942805;29;20457;-35
2021/04/23 03:51:23;;;;;;;1999.90;999.90;;;;;;;3.68;100.00;-18008.72;4942255;29;20447;-37
2021/04/23 03:54:10;;;;;;;1999.90;999.90;;;;;;;3.66;100.00;-18008.16;4942676;29;20452;-43
2021/04/23 03:57:02;;;;;;;1999.90;999.90;;;;;;;3.59;100.00;-18006.16;4942762;29;20639;-43
2021/04/23 03:59:50;;;;;;;1999.90;999.90;;;;;;;3.58;100.00;-18006.03;4942703;29;20452;-43
2021/04/23 04:02:37;;;;;;;1999.90;999.90;;;;;;;3.53;100.00;-18004.53;4942694;29;21009;-43
2021/04/23 04:05:23;;;;;;;1999.90;999.90;;;;;;;3.54;100.00;-18004.81;4941889;29;20456;-43
2021/04/23 04:08:09;;;;;;;1999.90;999.90;;;;;;;3.52;100.00;-18004.28;4942372;29;20878;-43
2021/04/23 04:10:59;;;;;;;1999.90;999.90;;;;;;;3.50;100.00;-18003.88;4941716;29;20448;-43
2021/04/23 04:13:45;;;;;;;1999.90;999.90;;;;;;;3.40;100.00;-18001.31;4941726;29;20865;-44
2021/04/23 04:16:33;;;;;;;1999.90;999.90;;;;;;;3.28;100.00;-17998.09;4942026;29;20605;-44
2021/04/23 04:19:19;;;;;;;1999.90;999.90;;;;;;;3.26;100.00;-17997.41;4942310;29;20448;-44
2021/04/23 04:22:10;;;;;;;1999.90;999.90;;;;;;;3.34;100.00;-17999.56;4941909;29;20453;-44
2021/04/23 04:24:56;;;;;;;1999.90;999.90;;;;;;;3.35;100.00;-17999.84;4941977;29;20468;-44
2021/04/23 04:27:43;;;;;;;1999.90;999.90;;;;;;;3.36;100.00;-18000.09;4942010;29;20914;-44
2021/04/23 04:30:29;;;;;;;1999.90;999.90;;;;;;;3.31;100.00;-17998.91;4942370;29;20723;-44
2021/04/23 04:33:17;;;;;;;1999.90;999.90;;;;;;;3.38;100.00;-18000.66;4941994;29;20741;-44
2021/04/23 04:36:06;;;;;;;1999.90;999.90;;;;;;;3.11;100.00;-17993.66;4941987;29;20874;-44
2021/04/23 04:38:53;;;;;;;1999.90;999.90;;;;;;;3.32;100.00;-17999.16;4941925;29;20874;-44
2021/04/23 04:41:40;;;;;;;1999.90;999.90;;;;;;;3.54;100.00;-18004.94;4941779;29;20452;-44
2021/04/23 04:44:26;;;;;;;1999.90;999.90;;;;;;;3.58;100.00;-18005.88;4941028;29;20512;-44
2021/04/23 04:47:12;;;;;;;1999.90;999.90;;;;;;;3.58;100.00;-18006.03;4941272;29;20456;-44
2021/04/23 04:50:03;;;;;;;1999.90;999.90;;;;;;;3.63;100.00;-18007.38;4941090;29;20548;-44
2021/04/23 04:52:48;;;;;;;1999.90;999.90;;;;;;;3.72;100.00;-18009.78;4940864;29;20460;-44
2021/04/23 04:55:37;;;;;;;1999.90;999.90;;;;;;;3.66;100.00;-18008.03;4940929;29;20448;-44
2021/04/23 04:58:25;;;;;;;1999.90;999.90;;;;;;;3.83;100.00;-18012.47;4941079;29;20656;-44
2021/04/23 05:01:14;;;;;;;1999.90;999.90;;;;;;;3.90;100.00;-18014.34;4941457;29;20456;-44
2021/04/23 05:04:00;;;;;;;1999.90;999.90;;;;;;;3.83;100.00;-18012.47;4940684;29;20456;-44
2021/04/23 05:06:46;;;;;;;1999.90;999.90;;;;;;;3.99;100.00;-18016.91;4940766;29;20469;-44
2021/04/23 05:09:36;;;;;;;1999.90;999.90;;;;;;;4.00;100.00;-18017.03;4940636;29;20464;-44
2021/04/23 05:12:22;;;;;;;1999.90;999.90;;;;;;;4.04;100.00;-18018.13;4940578;29;20513;-44
2021/04/23 05:15:09;;;;;;;1999.90;999.90;;;;;;;4.32;100.00;-18025.66;4940843;29;20448;-44
2021/04/23 05:17:56;;;;;;;1999.90;999.90;;;;;;;4.50;100.00;-18030.34;4940363;29;20456;-44
2021/04/23 05:20:42;;;;;;;1999.90;999.90;;;;;;;4.57;100.00;-18032.09;4939640;29;20448;-44
2021/04/23 05:23:28;;;;;;;1999.90;999.90;;;;;;;4.69;100.00;-18035.44;4940055;29;20452;-44
2021/04/23 05:26:16;;;;;;;1999.90;999.90;;;;;;;4.91;100.00;-18041.22;4939656;29;20456;-44
2021/04/23 05:29:04;;;;;;;1999.90;999.90;;;;;;;5.16;100.00;-18047.81;4939301;29;20728;-44
2021/04/23 05:31:49;;;;;;;1999.90;999.90;;;;;;;5.52;100.00;-18057.47;4940173;29;20448;-44
2021/04/23 05:34:36;;;;;;;1999.90;999.90;;;;;;;5.77;100.00;-18064.03;4939978;29;20448;-44
2021/04/23 05:37:22;;;;;;;1999.90;999.90;;;;;;;5.84;100.00;-18065.78;4940124;29;20483;-44
2021/04/23 05:40:11;;;;;;;1999.90;999.90;;;;;;;5.47;100.00;-18056.00;4940473;29;20551;-44
2021/04/23 05:43:04;;;;;;;1999.90;999.90;;;;;;;5.83;100.00;-18065.53;4939375;29;20474;-44
2021/04/23 05:45:50;;;;;;;1999.90;999.90;;;;;;;6.05;100.00;-18071.28;4939830;29;20448;-44
2021/04/23 05:48:36;;;;;;;1999.90;999.90;;;;;;;6.42;100.00;-18081.22;4939466;29;20472;-44
2021/04/23 05:51:29;;;;;;;1999.90;999.90;;;;;;;6.38;100.00;-18080.16;4943750;29;20195;-45
2021/04/23 05:54:21;;;;;;;1999.90;999.90;;;;;;;6.34;100.00;-18078.94;4951298;29;20587;-45
2021/04/23 05:57:09;;;;;;;1999.90;999.90;;;;;;;5.97;100.00;-18069.16;4939027;29;20319;-44
2021/04/23 05:59:55;;;;;;;1999.90;999.90;;;;;;;6.03;100.00;-18070.75;4939159;29;20296;-44
2021/04/23 06:02:43;;;;;;;1999.90;999.90;;;;;;;5.75;100.00;-18063.38;4939635;29;20288;-44
2021/04/23 06:05:30;;;;;;;1999.90;999.90;;;;;;;6.26;100.00;-18076.78;4940107;29;20200;-44
2021/04/23 06:08:17;;;;;;;1999.90;999.90;;;;;;;6.26;100.00;-18076.78;4939688;29;20204;-44
2021/04/23 06:11:09;;;;;;;1999.90;999.90;;;;;;;6.01;100.00;-18070.34;4939597;29;20200;-44
2021/04/23 06:13:55;;;;;;;1999.90;999.90;;;;;;;6.38;100.00;-18080.16;4938860;29;20208;-44
2021/04/23 06:16:41;;;;;;;1999.90;999.90;;;;;;;7.36;100.00;-18106.03;4937747;29;20228;-34
2021/04/23 06:19:30;;;;;;;1999.90;999.90;;;;;;;8.48;100.00;-18135.50;4938979;29;20260;-34
2021/04/23 06:22:21;;;;;;;1999.90;999.90;;;;;;;9.47;100.00;-18161.75;4939092;29;20663;-36
2021/04/23 06:25:11;;;;;;;1999.90;999.90;;;;;;;9.36;99.93;-18158.66;4939361;29;20208;-36
2021/04/23 06:27:58;;;;;;;1999.90;999.90;;;;;;;7.85;100.00;-18118.88;4939895;29;20205;-35
2021/04/23 06:30:43;;;;;;;1999.90;999.90;;;;;;;8.99;100.00;-18149.03;4938326;29;20347;-33
2021/04/23 06:33:34;;;;;;;1999.90;999.90;;;;;;;9.24;100.00;-18155.59;4938109;29;20204;-33
2021/04/23 06:36:27;;;;;;;1999.90;999.90;;;;;;;8.70;100.00;-18141.41;4937914;29;20231;-34
2021/04/23 06:39:20;;;;;;;1999.90;999.90;;;;;;;8.41;100.00;-18133.75;4939288;29;20562;-36
2021/04/23 06:42:07;;;;;;;1999.90;999.90;;;;;;;8.37;100.00;-18132.69;4938957;29;20687;-34
2021/04/23 06:44:53;;;;;;;1999.90;999.90;;;;;;;7.65;100.00;-18113.53;4945917;29;20214;-33
2021/04/23 06:47:40;;;;;;;1999.90;999.90;;;;;;;8.52;100.00;-18136.59;4939453;29;20702;-36
2021/04/23 06:50:26;;;;;;;1999.90;999.90;;;;;;;9.75;100.00;-18169.09;4949182;29;20496;-38
2021/04/23 06:53:15;;;;;;;1999.90;999.90;;;;;;;8.36;100.00;-18132.44;4958146;29;20207;-36
2021/04/23 06:56:02;;;;;;;1999.90;999.90;;;;;;;7.62;100.00;-18112.84;4958148;29;20213;-35
2021/04/23 06:58:49;;;;;;;1999.90;999.90;;;;;;;7.76;100.00;-18116.63;4957962;29;20247;-35
2021/04/23 07:01:38;;;;;;;1999.90;999.90;;;;;;;8.01;100.00;-18123.03;4957449;29;20208;-36
2021/04/23 07:04:25;;;;;;;1999.90;999.90;;;;;;;7.19;100.00;-18101.47;4957247;29;20513;-34
2021/04/23 07:07:14;;;;;;;1999.90;999.90;;;;;;;7.80;100.00;-18117.69;4957942;29;20287;-35
2021/04/23 07:10:00;;;;;;;1999.90;999.90;;;;;;;7.73;100.00;-18115.69;4957830;29;20208;-34
2021/04/23 07:12:46;;;;;;;1999.90;999.90;;;;;;;7.87;100.00;-18119.56;4957805;29;20368;-36
2021/04/23 07:15:38;;;;;;;1999.90;999.90;;;;;;;7.10;100.00;-18099.06;4956581;29;20205;-35
2021/04/23 07:18:26;;;;;;;1999.90;999.90;;;;;;;7.63;100.00;-18113.00;4956900;29;20519;-35
2021/04/23 07:21:14;;;;;;;1999.90;999.90;;;;;;;7.31;100.00;-18104.56;4957439;29;20204;-34
2021/04/23 07:24:01;;;;;;;1999.90;999.90;;;;;;;7.46;100.00;-18108.56;4957294;29;20232;-38
2021/04/23 07:26:49;;;;;;;1999.90;999.90;;;;;;;7.97;100.00;-18122.09;4957392;29;20344;-36
2021/04/23 07:29:34;;;;;;;1999.90;999.90;;;;;;;8.20;100.00;-18128.13;4957178;29;20207;-36
2021/04/23 07:32:21;;;;;;;1999.90;999.90;;;;;;;8.54;100.00;-18137.13;4956958;29;20475;-34
2021/04/23 07:35:10;;;;;;;1999.90;999.90;;;;;;;8.82;100.00;-18144.47;4956167;29;20208;-35
2021/04/23 07:37:58;;;;;;;1999.90;999.90;;;;;;;8.17;100.00;-18127.34;4957238;29;20232;-35
2021/04/23 07:40:47;;;;;;;1999.90;999.90;;;;;;;8.34;100.00;-18131.75;4957111;29;20199;-37
2021/04/23 07:43:33;;;;;;;1999.90;999.90;;;;;;;8.68;100.00;-18140.72;4957771;29;20208;-35
2021/04/23 07:46:19;;;;;;;1999.90;999.90;;;;;;;8.17;100.00;-18127.34;4957704;29;20305;-37
2021/04/23 07:49:11;;;;;;;1999.90;999.90;;;;;;;9.01;100.00;-18149.56;4957453;29;20320;-33
2021/04/23 07:51:59;;;;;;;1999.90;999.90;;;;;;;8.50;100.00;-18136.19;4958581;28;20191;-36
2021/04/23 07:54:47;;;;;;;1999.90;999.90;;;;;;;9.61;100.00;-18165.50;4960774;29;20221;-34
2021/04/23 07:57:35;;;;;;;1999.90;999.90;;;;;;;9.99;96.71;-18175.53;4959961;29;20243;-38
2021/04/23 08:00:23;;;;;;;1999.90;999.90;;;;;;;10.35;92.01;-18185.03;4960081;29;20213;-36
2021/04/23 08:03:09;;;;;;;1999.90;999.90;;;;;;;10.02;93.61;-18176.31;4960201;29;20613;-37
2021/04/23 08:05:56;;;;;;;1999.90;999.90;;;;;;;9.41;94.51;-18160.00;4959842;29;20510;-33
2021/04/23 08:09:03;;;;;;;1999.90;999.90;;;;;;;10.67;86.81;-18193.44;4960194;29;20199;-35
2021/04/23 08:11:52;;;;;;;1999.90;999.90;;;;;;;10.21;88.13;-18181.16;4960555;29;20203;-36
2021/04/23 08:14:38;;;;;;;1999.90;999.90;;;;;;;10.28;88.99;-18183.03;4960354;29;20280;-33
2021/04/23 08:17:32;;;;;;;1999.90;999.90;;;;;;;10.22;87.96;-18181.41;4960105;29;20201;-34
2021/04/23 08:20:20;;;;;;;1999.90;999.90;;;;;;;10.31;88.48;-18183.97;4960346;29;20204;-34
2021/04/23 08:23:07;;;;;;;1999.90;999.90;;;;;;;8.48;99.33;-18135.63;4960244;29;20203;-37
2021/04/23 08:25:58;;;;;;;1999.90;999.90;;;;;;;9.22;97.87;-18155.06;4960392;29;20618;-33
2021/04/23 08:28:45;;;;;;;1999.90;999.90;;;;;;;9.49;94.47;-18162.28;4959711;29;20220;-34
2021/04/23 08:31:31;;;;;;;1999.90;999.90;;;;;;;9.05;97.46;-18150.50;4960249;29;20595;-34
2021/04/23 08:34:24;;;;;;;1999.90;999.90;;;;;;;8.69;100.00;-18141.13;4959575;29;20665;-37
2021/04/23 08:37:20;;;;;;;1999.90;999.90;;;;;;;8.67;99.10;-18140.47;4960520;29;20647;-36
2021/04/23 08:40:13;;;;;;;1999.90;999.90;;;;;;;8.84;92.57;-18145.00;4960287;29;20494;-35
2021/04/23 08:43:03;;;;;;;1999.90;999.90;;;;;;;9.49;88.77;-18162.28;4959603;29;20252;-35
2021/04/23 08:45:49;;;;;;;1999.90;999.90;;;;;;;11.32;79.30;-18210.56;4960288;29;20306;-35
2021/04/23 08:48:35;;;;;;;1999.90;999.90;;;;;;;11.03;82.57;-18202.94;4945754;29;20208;-34
2021/04/23 08:51:26;;;;;;;1999.90;999.90;;;;;;;10.51;82.21;-18189.16;4940796;29;20224;-43
2021/04/23 08:54:15;;;;;;;1999.90;999.90;;;;;;;10.87;80.74;-18198.66;4940941;29;20205;-34
2021/04/23 08:57:01;;;;;;;1999.90;999.90;;;;;;;10.31;87.34;-18183.97;4940832;29;20275;-38
2021/04/23 08:59:50;;;;;;;1999.90;999.90;;;;;;;10.58;88.80;-18191.03;4940467;29;20256;-36
2021/04/23 09:02:38;;;;;;;1999.90;999.90;;;;;;;10.61;87.60;-18191.84;4940665;29;20312;-36
2021/04/23 09:05:25;;;;;;;1999.90;999.90;;;;;;;11.53;82.01;-18215.91;4939708;29;20196;-34
2021/04/23 09:08:13;;;;;;;1999.90;999.90;;;;;;;12.49;78.33;-18241.28;4940607;29;20337;-36
2021/04/23 09:10:59;;;;;;;1999.90;999.90;;;;;;;10.84;79.65;-18197.72;4940663;29;20200;-37
2021/04/23 09:13:53;;;;;;;1999.90;999.90;;;;;;;12.12;74.11;-18231.53;4941066;29;20352;-38
2021/04/23 09:17:03;;;;;;;1999.90;999.90;;;;;;;11.71;76.65;-18220.72;4940212;29;20201;-35
2021/04/23 09:19:50;;;;;;;1999.90;999.90;;;;;;;11.04;76.97;-18203.22;4933331;29;20204;-34
2021/04/23 09:22:36;;;;;;;1999.90;999.90;;;;;;;10.95;79.42;-18200.81;4939727;29;20204;-33
2021/04/23 09:25:25;;;;;;;1999.90;999.90;;;;;;;9.93;83.20;-18173.78;4940002;29;20201;-34
2021/04/23 09:28:12;;;;;;;1999.90;999.90;;;;;;;8.98;91.30;-18148.91;4939793;29;20232;-35
2021/04/23 09:30:59;;;;;;;1999.90;999.90;;;;;;;9.96;89.00;-18174.72;4939616;29;20212;-36
2021/04/23 09:33:52;;;;;;;1999.90;999.90;;;;;;;10.16;84.38;-18179.81;4940286;29;20363;-35
2021/04/23 09:36:50;;;;;;;1999.90;999.90;;;;;;;10.84;79.96;-18197.84;4940238;29;20349;-34
2021/04/23 09:39:52;;;;;;;1999.90;999.90;;;;;;;10.33;84.26;-18184.50;4939989;29;20499;-34
2021/04/23 09:42:49;;;;;;;1999.90;999.90;;;;;;;11.28;83.95;-18209.34;4939987;29;20209;-35
2021/04/23 09:45:47;;;;;;;1999.90;999.90;;;;;;;11.64;78.93;-18218.97;4938583;29;20200;-35
2021/04/23 09:48:33;;;;;;;1999.90;999.90;;;;;;;11.81;75.87;-18223.25;4939608;29;20228;-36
2021/04/23 09:51:21;;;;;;;1999.90;999.90;;;;;;;12.75;68.87;-18248.22;4939852;29;20210;-34
2021/04/23 09:54:16;;;;;;;1999.90;999.90;;;;;;;12.11;71.08;-18231.28;4939840;29;20341;-37
2021/04/23 09:57:20;;;;;;;1999.90;999.90;;;;;;;13.40;65.13;-18265.16;4939827;29;20217;-35
2021/04/23 10:00:08;;;;;;;1999.90;999.90;;;;;;;15.25;61.69;-18313.81;4939276;29;20197;-33
2021/04/23 10:03:00;;;;;;;1999.90;999.90;;;;;;;15.57;58.77;-18322.22;4939556;29;20205;-38
2021/04/23 10:05:47;;;;;;;1999.90;999.90;;;;;;;14.25;58.45;-18287.44;4939664;29;20485;-39
2021/04/23 10:08:36;;;;;;;1999.90;999.90;;;;;;;14.53;58.81;-18294.78;4939030;29;20223;-37
2021/04/23 10:11:39;;;;;;;1999.90;999.90;;;;;;;13.65;67.24;-18271.84;4939003;29;20204;-36
2021/04/23 10:14:26;;;;;;;1999.90;999.90;;;;;;;12.94;66.98;-18253.03;4938747;29;20212;-35
2021/04/23 10:17:21;;;;;;;1999.90;999.90;;;;;;;10.99;74.80;-18201.88;4939273;29;20290;-34
2021/04/23 10:20:11;;;;;;;1999.90;999.90;;;;;;;12.45;70.53;-18240.22;4938666;29;20326;-36
2021/04/23 10:22:59;;;;;;;1999.90;999.90;;;;;;;13.02;66.96;-18255.16;4939340;29;20196;-36
2021/04/23 10:25:50;;;;;;;1999.90;999.90;;;;;;;12.85;68.56;-18250.63;4939392;29;20483;-36
2021/04/23 10:28:40;;;;;;;1999.90;999.90;;;;;;;14.39;61.12;-18291.16;4939131;29;20239;-36
2021/04/23 10:31:34;;;;;;;1999.90;999.90;;;;;;;13.46;66.26;-18266.78;4938852;29;20208;-37
2021/04/23 10:34:32;;;;;;;1999.90;999.90;;;;;;;13.05;64.89;-18256.09;4957763;29;20287;-36
2021/04/23 10:37:28;;;;;;;1999.90;999.90;;;;;;;10.85;68.86;-18198.00;4941167;29;20226;-37
2021/04/23 10:40:17;;;;;;;1999.90;999.90;;;;;;;11.64;68.66;-18218.84;4956431;29;20221;-36
2021/04/23 10:43:10;;;;;;;1999.90;999.90;;;;;;;15.15;61.23;-18311.16;4944443;29;20203;-37
2021/04/23 10:46:05;;;;;;;1999.90;999.90;;;;;;;15.55;54.89;-18321.69;4947385;29;20353;-37
2021/04/23 10:49:03;;;;;;;1999.90;999.90;;;;;;;14.62;56.87;-18297.31;4940789;29;20213;-35
2021/04/23 10:52:06;;;;;;;1999.90;999.90;;;;;;;15.61;54.77;-18323.28;4948053;29;20295;-36
2021/04/23 10:55:04;;;;;;;1999.90;999.90;;;;;;;16.04;52.65;-18334.59;4943682;29;20614;-37
2021/04/23 10:57:55;;;;;;;1999.90;999.90;;;;;;;16.91;48.20;-18357.34;4951800;29;20636;-39
2021/04/23 11:00:44;;;;;;;1999.90;999.90;;;;;;;16.62;48.40;-18349.63;4941683;29;20272;-34
2021/04/23 11:03:32;;;;;;;1999.90;999.90;;;;;;;14.17;59.79;-18285.31;4945049;29;20228;-37
2021/04/23 11:06:28;;;;;;;1999.90;999.90;;;;;;;12.84;68.44;-18250.34;4946925;29;20209;-35
2021/04/23 11:09:19;;;;;;;1999.90;999.90;;;;;;;14.63;61.60;-18297.44;4943681;29;20212;-36
2021/04/23 11:12:17;;;;;;;1999.90;999.90;;;;;;;12.90;64.63;-18251.97;4953435;29;20308;-36
2021/04/23 11:15:15;;;;;;;1999.90;999.90;;;;;;;13.18;68.22;-18259.31;4953602;29;20328;-36
2021/04/23 11:18:27;;;;;;;1999.90;999.90;;;;;;;14.01;63.90;-18281.31;4954634;29;20348;-39
2021/04/23 11:21:45;;;;;;;1999.90;999.90;;;;;;;15.21;59.79;-18312.63;4944439;29;20645;-36
2021/04/23 11:24:32;;;;;;;1999.90;999.90;;;;;;;14.58;56.46;-18296.25;4941250;28;20208;-37
2021/04/23 11:27:17;;;;;;;1999.90;999.90;;;;;;;14.49;60.89;-18293.84;4958165;28;20252;-37
2021/04/23 11:30:14;;;;;;;1999.90;999.90;;;;;;;13.89;56.00;-18278.09;4961428;29;20208;-37
2021/04/23 11:33:01;;;;;;;1999.90;999.90;;;;;;;15.80;51.54;-18328.34;4957313;29;20207;-40
2021/04/23 11:35:47;;;;;;;1999.90;999.90;;;;;;;16.23;46.76;-18339.38;4944223;29;20275;-39
2021/04/23 11:38:52;;;;;;;1999.90;999.90;;;;;;;14.32;55.80;-18289.44;4953525;29;20464;-39
2021/04/23 11:41:39;;;;;;;1999.90;999.90;;;;;;;15.28;57.10;-18314.47;4956694;29;20214;-38
2021/04/23 11:44:56;;;;;;;1999.90;999.90;;;;;;;16.17;50.27;-18338.06;4943494;29;20216;-40
2021/04/23 11:47:46;;;;;;;1999.90;999.90;;;;;;;16.35;50.65;-18342.72;4904395;29;20730;-38
2021/04/23 11:50:38;;;;;;;1999.90;999.90;;;;;;;14.19;58.17;-18285.84;4953002;29;20224;-37
2021/04/23 11:53:24;;;;;;;1999.90;999.90;;;;;;;14.99;59.07;-18306.88;4944883;29;20203;-38
2021/04/23 11:56:12;;;;;;;1999.90;999.90;;;;;;;15.05;56.07;-18308.50;4958538;29;20209;-35
2021/04/23 11:59:05;;;;;;;1999.90;999.90;;;;;;;15.76;53.79;-18327.13;4942639;29;20240;-38
2021/04/23 12:01:57;;;;;;;1999.90;999.90;;;;;;;15.91;53.35;-18331.00;4943818;29;20292;-36
2021/04/23 12:04:47;;;;;;;1999.90;999.90;;;;;;;14.37;54.59;-18290.63;4941567;29;20599;-40
2021/04/23 12:07:43;;;;;;;1999.90;999.90;;;;;;;15.59;50.38;-18322.63;4955116;29;20231;-39
2021/04/23 12:10:37;;;;;;;1999.90;999.90;;;;;;;16.53;47.66;-18347.34;4961482;29;20208;-40
2021/04/23 12:13:28;;;;;;;1999.90;999.90;;;;;;;16.99;46.94;-18359.47;4960520;29;20205;-40
2021/04/23 12:16:15;;;;;;;1999.90;999.90;;;;;;;17.00;48.25;-18359.72;4961156;29;20326;-37
2021/04/23 12:19:08;;;;;;;1999.90;999.90;;;;;;;15.88;46.71;-18330.19;4960087;29;20204;-34
2021/04/23 12:21:58;;;;;;;1999.90;999.90;;;;;;;17.38;45.09;-18369.56;4960503;29;20210;-36
2021/04/23 12:24:44;;;;;;;1999.90;999.90;;;;;;;15.23;50.31;-18313.16;4960499;29;20203;-37